Nichols, Iowa
Current Conditions -  °F | °C
As of 2:35 AM on Sunday 21 Dec 2014 (Local Time) from KMUT Reporting Station
Haze Haze  
Wind Chill: 31°   Ceiling: 3300
Heat Index: 36°   Visibility: 4mi
Dew Point: 34°   Wind: 6mph
Humidity: 93%   Direction: 150°SSE
Pressure: 30.17"   Gusts: NA
Location:  41.48°N, 91.31°W
Report Text: KMUT 210835Z AUTO 15005KT 4SM BR OVC033 02/01 A3017 RMK AO2
Loading
Personal Weather Stations






























Interactive Weather Map New forecast layout! Learn more

10-Day Weather Forecast

Advertisements
Track Severe Weather on mobile